Time;durP1;ratioP1;P1;durP2;ratioP2;P2;SDS_P1;SDS_P2;PMS_P1;PMS_P2;Temp;Humidity;BMP_temperature;BMP_pressure;BME280_temperature;BME280_humidity;BME280_pressure;Samples;Min_cycle;Max_cycle;Signal;HPM_P1;HPM_P2
2021/12/19 00:00:32;;;;;;;16.23;8.30;;;6.40;99.90;;;;;;4462953;28;10002023;-75
2021/12/19 00:03:18;;;;;;;14.00;8.43;;;6.40;99.90;;;;;;5076221;28;20028;-75
2021/12/19 00:10:55;;;;;;;18.00;9.13;;;6.40;99.90;;;;;;5050963;28;20029;-76
2021/12/19 00:13:24;;;;;;;12.20;7.88;;;6.40;99.90;;;;;;5055867;28;20038;-76
2021/12/19 00:15:50;;;;;;;17.15;8.70;;;6.40;99.90;;;;;;5055005;28;20036;-75
2021/12/19 00:18:15;;;;;;;15.00;7.93;;;6.40;99.90;;;;;;5040788;28;20025;-75
2021/12/19 00:20:41;;;;;;;15.95;8.57;;;6.40;99.90;;;;;;5048617;28;20021;-75
2021/12/19 00:23:07;;;;;;;15.30;8.90;;;6.50;99.90;;;;;;5061053;28;20029;-75
2021/12/19 00:25:33;;;;;;;16.98;9.07;;;6.50;99.90;;;;;;5049050;28;20017;-75
2021/12/19 00:27:58;;;;;;;15.82;8.77;;;6.50;99.90;;;;;;5059035;28;20122;-75
2021/12/19 00:30:24;;;;;;;15.05;7.55;;;6.40;99.90;;;;;;5051877;28;20099;-75
2021/12/19 00:32:50;;;;;;;13.93;8.07;;;6.40;99.90;;;;;;5052531;28;20424;-75
2021/12/19 00:35:16;;;;;;;14.32;8.00;;;6.40;99.90;;;;;;5030936;28;20175;-75
2021/12/19 00:37:42;;;;;;;14.38;8.68;;;6.40;99.90;;;;;;5028728;28;20021;-74
2021/12/19 00:40:08;;;;;;;17.45;8.40;;;6.40;99.90;;;;;;5025232;28;20034;-75
2021/12/19 00:42:36;;;;;;;18.52;8.23;;;6.40;99.90;;;;;;5024272;28;20033;-75
2021/12/19 00:45:15;;;;;;;15.52;8.85;;;6.40;99.90;;;;;;5030948;28;20499;-76
2021/12/19 00:47:41;;;;;;;15.70;8.68;;;6.40;99.90;;;;;;5040568;28;20112;-76
2021/12/19 00:50:07;;;;;;;14.13;8.02;;;6.50;99.90;;;;;;5022907;28;20120;-76
2021/12/19 00:52:32;;;;;;;13.88;8.20;;;6.50;99.90;;;;;;5047005;28;20040;-76
2021/12/19 00:54:58;;;;;;;16.05;8.80;;;6.40;99.90;;;;;;5014680;28;20551;-76
2021/12/19 00:57:23;;;;;;;14.55;8.32;;;6.50;99.90;;;;;;5014030;28;20036;-76
2021/12/19 00:59:49;;;;;;;14.52;8.05;;;6.50;99.90;;;;;;5018614;28;20429;-76
2021/12/19 01:02:15;;;;;;;17.55;9.00;;;6.50;99.90;;;;;;5018087;28;20026;-76
2021/12/19 01:04:40;;;;;;;17.52;10.15;;;6.50;99.90;;;;;;5035966;28;20092;-76
2021/12/19 01:07:06;;;;;;;15.07;9.52;;;6.50;99.90;;;;;;5039125;28;20156;-76
2021/12/19 01:09:32;;;;;;;15.32;9.68;;;6.50;99.90;;;;;;5035639;28;20029;-76
2021/12/19 01:11:57;;;;;;;20.23;11.60;;;6.50;99.90;;;;;;5014664;28;20038;-75
2021/12/19 01:14:23;;;;;;;19.35;11.60;;;6.60;99.90;;;;;;5028828;28;20026;-76
2021/12/19 01:16:49;;;;;;;20.33;11.88;;;6.60;99.90;;;;;;5022306;28;20121;-76
2021/12/19 01:19:14;;;;;;;22.55;11.93;;;6.60;99.90;;;;;;5034634;28;20371;-76
2021/12/19 01:21:40;;;;;;;19.58;12.00;;;6.60;99.90;;;;;;5024465;28;20104;-75
2021/12/19 01:24:06;;;;;;;21.80;12.43;;;6.60;99.90;;;;;;5035195;28;20501;-76
2021/12/19 01:26:32;;;;;;;21.98;12.65;;;6.60;99.90;;;;;;5030011;28;20379;-76
2021/12/19 01:28:57;;;;;;;21.52;12.88;;;6.60;99.90;;;;;;5022411;28;20037;-76
2021/12/19 01:31:23;;;;;;;22.52;13.05;;;6.60;99.90;;;;;;5027508;28;20049;-75
2021/12/19 01:33:49;;;;;;;19.35;12.45;;;6.60;99.90;;;;;;5035010;28;20067;-76
2021/12/19 01:36:14;;;;;;;23.17;12.70;;;6.60;99.90;;;;;;5016802;28;20099;-75
2021/12/19 01:38:40;;;;;;;21.58;12.70;;;6.50;99.90;;;;;;5015739;28;20040;-75
2021/12/19 01:41:06;;;;;;;22.83;12.60;;;6.60;99.90;;;;;;5020305;28;20029;-76
2021/12/19 01:43:32;;;;;;;19.45;11.80;;;6.60;99.90;;;;;;5024104;28;20084;-76
2021/12/19 01:45:58;;;;;;;19.13;11.98;;;6.50;99.90;;;;;;5030767;28;20017;-76
2021/12/19 01:48:24;;;;;;;22.75;12.82;;;6.50;99.90;;;;;;5016546;28;20049;-76
2021/12/19 01:50:50;;;;;;;21.45;11.98;;;6.60;99.90;;;;;;5023962;28;20392;-76
2021/12/19 01:53:16;;;;;;;20.85;12.65;;;6.50;99.90;;;;;;5027179;28;20349;-76
2021/12/19 01:55:44;;;;;;;21.92;12.75;;;6.50;99.90;;;;;;5026375;28;20029;-76
2021/12/19 01:58:12;;;;;;;20.70;12.70;;;6.50;99.90;;;;;;5028706;28;20033;-76
2021/12/19 02:00:41;;;;;;;26.33;13.10;;;6.50;99.90;;;;;;5020095;28;20071;-75
2021/12/19 02:03:09;;;;;;;22.88;13.73;;;6.40;99.90;;;;;;5013623;28;20484;-76
2021/12/19 02:05:35;;;;;;;24.85;12.70;;;6.40;99.90;;;;;;5019300;28;20037;-77
2021/12/19 02:08:02;;;;;;;22.73;13.10;;;6.40;99.90;;;;;;5026703;28;20028;-75
2021/12/19 02:10:30;;;;;;;21.48;12.07;;;6.50;99.90;;;;;;5021085;28;20030;-75
2021/12/19 02:12:58;;;;;;;20.52;11.77;;;6.40;99.90;;;;;;5030334;28;20064;-75
2021/12/19 02:15:26;;;;;;;19.45;11.85;;;6.40;99.90;;;;;;5023888;28;20061;-75
2021/12/19 02:17:55;;;;;;;19.42;12.48;;;6.40;99.90;;;;;;5020223;28;20393;-75
2021/12/19 02:20:22;;;;;;;19.05;12.07;;;6.50;99.90;;;;;;5034037;28;20088;-75
2021/12/19 02:22:48;;;;;;;20.33;11.88;;;6.50;99.90;;;;;;5027423;28;20084;-76
2021/12/19 02:25:14;;;;;;;17.23;11.70;;;6.50;99.90;;;;;;5022661;28;20124;-76
2021/12/19 02:27:41;;;;;;;17.23;11.75;;;6.50;99.90;;;;;;5029260;28;20108;-76
2021/12/19 02:30:08;;;;;;;19.23;12.18;;;6.40;99.90;;;;;;5036767;28;20029;-76
2021/12/19 02:32:35;;;;;;;21.90;12.27;;;6.40;99.90;;;;;;5036105;28;20044;-75
2021/12/19 02:35:05;;;;;;;19.08;11.90;;;6.40;99.90;;;;;;5024930;28;20117;-76
2021/12/19 02:50:45;;;;;;;24.33;12.90;;;6.30;99.90;;;;;;5030288;28;20033;-75
2021/12/19 02:53:11;;;;;;;16.52;11.30;;;6.30;99.90;;;;;;5029641;28;20053;-76
2021/12/19 02:55:37;;;;;;;15.98;10.88;;;6.30;99.90;;;;;;5014310;28;20061;-75
2021/12/19 02:58:03;;;;;;;16.73;11.10;;;6.30;99.90;;;;;;5026371;28;20030;-75
2021/12/19 03:00:28;;;;;;;18.55;11.13;;;6.30;99.90;;;;;;5033402;28;20041;-75
2021/12/19 03:02:54;;;;;;;15.23;10.27;;;6.30;99.90;;;;;;5018914;28;20021;-76
2021/12/19 03:05:20;;;;;;;16.48;10.75;;;6.30;99.90;;;;;;5024373;28;20014;-75
2021/12/19 03:07:46;;;;;;;18.25;10.45;;;6.30;99.90;;;;;;5019071;28;20067;-75
2021/12/19 03:18:48;;;;;;;18.20;10.95;;;6.30;99.90;;;;;;5036697;28;20602;-75
2021/12/19 03:21:16;;;;;;;16.52;10.70;;;6.30;99.90;;;;;;5028707;28;20025;-75
2021/12/19 03:23:42;;;;;;;16.63;11.38;;;6.30;99.90;;;;;;5039276;28;20021;-76
2021/12/19 03:26:08;;;;;;;17.02;11.23;;;6.30;99.90;;;;;;5022920;28;20079;-76
2021/12/19 03:28:34;;;;;;;18.83;11.32;;;6.30;99.90;;;;;;5024922;28;20180;-76
2021/12/19 03:31:02;;;;;;;17.27;12.00;;;6.30;99.90;;;;;;5015009;28;20034;-74
2021/12/19 03:33:28;;;;;;;20.15;11.45;;;6.30;99.90;;;;;;5027715;28;20042;-75
2021/12/19 03:35:54;;;;;;;18.30;12.27;;;6.40;99.90;;;;;;5024665;28;20430;-75
2021/12/19 03:38:19;;;;;;;18.23;11.93;;;6.40;99.90;;;;;;5029160;28;20033;-75
2021/12/19 03:40:53;;;;;;;17.10;11.32;;;6.30;99.90;;;;;;5024404;28;20014;-75
2021/12/19 03:43:21;;;;;;;18.15;11.90;;;6.30;99.90;;;;;;5023531;28;20053;-75
2021/12/19 03:45:47;;;;;;;16.98;11.48;;;6.30;99.90;;;;;;5017663;28;20022;-76
2021/12/19 03:48:16;;;;;;;19.25;12.07;;;6.30;99.90;;;;;;5015571;28;20467;-76
2021/12/19 03:50:45;;;;;;;19.10;11.82;;;6.40;99.90;;;;;;5017407;28;20071;-76
2021/12/19 03:53:13;;;;;;;19.65;12.57;;;6.30;99.90;;;;;;5013645;28;20026;-76
2021/12/19 03:55:39;;;;;;;22.13;12.13;;;6.30;99.90;;;;;;5019229;28;20437;-75
2021/12/19 03:58:05;;;;;;;21.52;12.27;;;6.30;99.90;;;;;;5022320;28;20029;-76
2021/12/19 04:00:32;;;;;;;19.30;12.75;;;6.30;99.90;;;;;;5020870;28;22657;-76
2021/12/19 04:03:03;;;;;;;18.52;12.60;;;6.30;99.90;;;;;;5014242;28;20034;-76
2021/12/19 04:05:29;;;;;;;18.90;12.32;;;6.30;99.90;;;;;;5013266;28;20030;-75
2021/12/19 04:07:54;;;;;;;18.17;12.02;;;6.30;99.90;;;;;;5030704;28;20025;-75
2021/12/19 04:10:21;;;;;;;18.30;12.10;;;6.30;99.90;;;;;;5036664;28;20030;-75
2021/12/19 04:12:48;;;;;;;19.15;12.10;;;6.20;99.90;;;;;;5010723;28;20037;-75
2021/12/19 04:15:14;;;;;;;18.02;12.15;;;6.30;99.90;;;;;;5028379;28;20029;-75
2021/12/19 04:17:40;;;;;;;20.05;12.35;;;6.20;99.90;;;;;;5038458;28;20032;-75
2021/12/19 04:20:06;;;;;;;20.35;12.40;;;6.20;99.90;;;;;;5024336;28;20365;-75
2021/12/19 04:22:32;;;;;;;17.98;12.57;;;6.20;99.90;;;;;;5020949;28;20051;-75
2021/12/19 04:24:58;;;;;;;18.55;12.65;;;6.20;99.90;;;;;;5034690;28;20039;-75
2021/12/19 04:27:25;;;;;;;19.80;12.55;;;6.20;99.90;;;;;;5023214;28;20408;-76
2021/12/19 04:29:52;;;;;;;19.48;12.20;;;6.20;99.90;;;;;;5031978;28;20396;-76
2021/12/19 04:32:18;;;;;;;21.42;13.15;;;6.20;99.90;;;;;;5025413;28;20049;-75
2021/12/19 04:34:44;;;;;;;19.15;12.18;;;6.20;99.90;;;;;;5036619;28;20370;-76
2021/12/19 04:40:21;;;;;;;17.90;12.27;;;6.30;99.90;;;;;;5020296;28;20068;-76
2021/12/19 05:06:51;;;;;;;24.85;14.82;;;6.20;99.90;;;;;;5025666;28;20030;-76
2021/12/19 05:16:35;;;;;;;19.05;12.88;;;6.20;99.90;;;;;;5042322;28;20033;-75
2021/12/19 05:19:07;;;;;;;20.58;13.52;;;6.20;99.90;;;;;;5020017;28;20026;-76
2021/12/19 05:21:35;;;;;;;19.27;12.40;;;6.20;99.90;;;;;;5017954;28;20025;-75
2021/12/19 05:26:26;;;;;;;19.20;12.90;;;6.10;99.90;;;;;;5022167;28;20034;-75
2021/12/19 05:28:52;;;;;;;18.95;12.35;;;6.20;99.90;;;;;;5030117;28;20112;-75
2021/12/19 05:31:19;;;;;;;18.73;12.43;;;6.20;99.90;;;;;;5018771;28;20473;-75
2021/12/19 05:33:46;;;;;;;19.23;12.43;;;6.10;99.90;;;;;;5029368;28;20036;-76
2021/12/19 05:46:41;;;;;;;15.32;10.05;;;6.10;99.90;;;;;;5039809;28;20025;-75
2021/12/19 05:49:07;;;;;;;14.18;9.57;;;6.10;99.90;;;;;;5026224;28;20040;-75
2021/12/19 05:51:35;;;;;;;16.00;10.52;;;6.10;99.90;;;;;;5031602;28;20113;-76
2021/12/19 05:54:00;;;;;;;14.52;9.95;;;6.10;99.90;;;;;;5023850;28;20037;-76
2021/12/19 05:56:26;;;;;;;16.15;10.73;;;6.10;99.90;;;;;;5044305;28;20030;-76
2021/12/19 05:58:52;;;;;;;16.80;10.70;;;6.10;99.90;;;;;;5029711;28;20117;-76
2021/12/19 06:01:18;;;;;;;15.23;10.40;;;6.10;99.90;;;;;;5029351;28;20022;-76
2021/12/19 06:03:43;;;;;;;16.50;10.48;;;6.10;99.90;;;;;;5029229;28;20038;-77
2021/12/19 06:06:09;;;;;;;16.80;9.82;;;6.10;99.90;;;;;;5041442;28;20218;-76
2021/12/19 06:08:35;;;;;;;13.93;9.75;;;6.20;99.90;;;;;;5027691;28;20021;-76
2021/12/19 06:11:00;;;;;;;14.23;9.60;;;6.20;99.90;;;;;;5027418;28;20493;-75
2021/12/19 06:13:26;;;;;;;14.70;9.23;;;6.30;99.90;;;;;;5042499;28;20057;-76
2021/12/19 06:15:54;;;;;;;15.18;10.10;;;6.20;99.90;;;;;;5016747;28;20091;-77
2021/12/19 06:18:20;;;;;;;16.20;9.68;;;6.20;99.90;;;;;;5037596;28;20152;-76
2021/12/19 06:20:47;;;;;;;16.70;11.05;;;6.20;99.90;;;;;;5032628;28;20108;-76
2021/12/19 06:23:13;;;;;;;17.13;9.93;;;6.20;99.90;;;;;;5018365;28;20061;-76
2021/12/19 06:25:45;;;;;;;13.70;9.13;;;6.10;99.90;;;;;;5026932;28;20069;-76
2021/12/19 06:28:21;;;;;;;20.50;9.50;;;6.10;99.90;;;;;;5024796;28;20026;-76
2021/12/19 06:30:47;;;;;;;12.70;8.70;;;6.10;99.90;;;;;;5028906;28;20037;-76
2021/12/19 06:33:13;;;;;;;13.73;8.95;;;6.10;99.90;;;;;;5029922;28;20049;-76
2021/12/19 06:35:38;;;;;;;11.82;8.18;;;6.10;99.90;;;;;;5044394;28;20482;-76
2021/12/19 06:38:06;;;;;;;10.20;7.57;;;6.10;99.90;;;;;;5024006;28;20045;-75
2021/12/19 06:40:33;;;;;;;10.02;7.18;;;6.10;99.90;;;;;;5025022;28;20029;-75
2021/12/19 06:42:58;;;;;;;10.80;6.88;;;6.10;99.90;;;;;;5044224;28;20060;-75
2021/12/19 06:45:25;;;;;;;10.25;7.15;;;6.10;99.90;;;;;;5021534;28;20076;-75
2021/12/19 06:47:51;;;;;;;10.82;7.38;;;6.00;99.90;;;;;;5013967;28;20049;-75
2021/12/19 06:50:17;;;;;;;10.07;7.15;;;6.00;99.90;;;;;;5024264;28;20469;-75
2021/12/19 06:52:44;;;;;;;10.55;7.53;;;6.00;99.90;;;;;;5023135;28;20034;-75
2021/12/19 06:55:12;;;;;;;11.02;7.13;;;6.00;99.90;;;;;;5030700;28;20022;-75
2021/12/19 06:57:38;;;;;;;10.32;7.15;;;6.00;99.90;;;;;;5022270;28;20037;-75
2021/12/19 07:00:10;;;;;;;10.90;6.53;;;6.00;99.90;;;;;;5034776;28;20070;-75
2021/12/19 07:02:36;;;;;;;10.32;7.18;;;6.00;99.90;;;;;;5031737;28;20025;-76
2021/12/19 07:05:02;;;;;;;9.05;5.93;;;6.00;99.90;;;;;;5024442;28;20594;-75
2021/12/19 07:07:29;;;;;;;9.65;6.32;;;6.00;99.90;;;;;;5025028;28;20032;-75
2021/12/19 07:09:55;;;;;;;9.40;6.35;;;6.00;99.90;;;;;;5027759;28;20030;-75
2021/12/19 07:12:20;;;;;;;7.10;5.32;;;5.90;99.90;;;;;;5038232;28;20044;-76
2021/12/19 07:14:46;;;;;;;7.40;4.80;;;5.90;99.90;;;;;;5014730;28;20025;-75
2021/12/19 07:17:12;;;;;;;6.72;4.72;;;5.90;99.90;;;;;;5031982;28;20017;-75
2021/12/19 07:19:38;;;;;;;5.85;4.18;;;5.90;99.90;;;;;;5024637;28;20018;-75
2021/12/19 07:22:04;;;;;;;6.10;4.20;;;5.90;99.90;;;;;;4682273;28;9999859;-75
2021/12/19 07:24:29;;;;;;;5.07;2.83;;;5.90;99.90;;;;;;5024379;28;20128;-75
2021/12/19 07:26:55;;;;;;;4.57;2.90;;;5.90;99.90;;;;;;5030643;28;20028;-75
2021/12/19 07:29:21;;;;;;;4.13;2.83;;;5.90;99.90;;;;;;5015491;28;20068;-75
2021/12/19 07:31:46;;;;;;;3.15;2.20;;;5.80;99.90;;;;;;5023819;28;20395;-75
2021/12/19 07:34:12;;;;;;;2.10;1.80;;;5.80;99.90;;;;;;5013076;28;20167;-75
2021/12/19 07:36:42;;;;;;;2.33;1.63;;;5.80;99.90;;;;;;5024022;28;20071;-75
2021/12/19 07:39:20;;;;;;;2.55;1.35;;;5.80;99.90;;;;;;5021707;28;20033;-75
2021/12/19 07:41:45;;;;;;;1.35;1.17;;;5.70;99.90;;;;;;5027149;28;20033;-75
2021/12/19 07:44:11;;;;;;;1.48;1.27;;;5.70;99.90;;;;;;5025389;28;20036;-76
2021/12/19 07:46:36;;;;;;;1.75;1.33;;;5.70;99.90;;;;;;5023972;28;20191;-75
2021/12/19 07:49:02;;;;;;;1.55;1.10;;;5.70;99.90;;;;;;5017569;28;20029;-75
2021/12/19 07:51:29;;;;;;;1.48;1.10;;;5.70;99.90;;;;;;5025052;28;20029;-75
2021/12/19 07:53:54;;;;;;;1.38;1.20;;;5.60;99.90;;;;;;5022616;28;20045;-75
2021/12/19 07:56:20;;;;;;;1.75;1.23;;;5.60;99.90;;;;;;5024908;28;20026;-75
2021/12/19 07:58:45;;;;;;;1.55;0.93;;;5.60;99.90;;;;;;5014818;28;20452;-75
2021/12/19 08:01:11;;;;;;;1.52;0.80;;;5.60;99.90;;;;;;5020807;28;20478;-75
2021/12/19 08:03:37;;;;;;;1.35;1.15;;;5.60;99.90;;;;;;5019399;28;20032;-75
2021/12/19 08:06:03;;;;;;;0.80;0.70;;;5.60;99.90;;;;;;5016810;28;20029;-75
2021/12/19 08:08:32;;;;;;;2.25;1.17;;;5.60;99.90;;;;;;5027446;28;20034;-75
2021/12/19 08:13:42;;;;;;;1.45;0.90;;;5.60;99.90;;;;;;5020556;28;20097;-76
2021/12/19 08:16:08;;;;;;;3.05;1.05;;;5.60;99.90;;;;;;5033108;28;20481;-75
2021/12/19 08:18:34;;;;;;;1.55;1.00;;;5.50;99.90;;;;;;5030619;28;20378;-74
2021/12/19 08:20:59;;;;;;;1.45;0.80;;;5.60;99.90;;;;;;5019012;28;20034;-75
2021/12/19 08:23:25;;;;;;;0.80;0.55;;;5.50;99.90;;;;;;5021077;28;20030;-75
2021/12/19 08:25:51;;;;;;;0.82;0.65;;;5.50;99.90;;;;;;5033191;28;20043;-75
2021/12/19 08:28:16;;;;;;;0.70;0.70;;;5.50;99.90;;;;;;5025277;28;20538;-72
2021/12/19 08:30:42;;;;;;;0.95;0.70;;;5.50;99.90;;;;;;5036796;28;20043;-75
2021/12/19 08:33:07;;;;;;;0.68;0.55;;;5.50;99.90;;;;;;5017157;28;20671;-74
2021/12/19 08:35:33;;;;;;;0.50;0.50;;;5.50;99.90;;;;;;5018836;28;20520;-75
2021/12/19 08:37:59;;;;;;;0.80;0.60;;;5.50;99.90;;;;;;5024457;28;20055;-74
2021/12/19 08:40:27;;;;;;;0.40;0.40;;;5.50;99.90;;;;;;5018054;28;20121;-74
2021/12/19 08:42:53;;;;;;;0.50;0.50;;;5.50;99.90;;;;;;5037639;28;20154;-76
2021/12/19 08:45:19;;;;;;;0.50;0.50;;;5.40;99.90;;;;;;5026499;28;20120;-74
2021/12/19 08:47:45;;;;;;;1.10;0.70;;;5.50;99.90;;;;;;5020107;28;20053;-74
2021/12/19 08:50:12;;;;;;;1.42;0.40;;;5.50;99.90;;;;;;5007543;28;20881;-74
2021/12/19 08:52:37;;;;;;;0.45;0.40;;;5.40;99.90;;;;;;5011004;28;20034;-75
2021/12/19 08:55:05;;;;;;;0.75;0.60;;;5.50;99.90;;;;;;5018568;28;20029;-74
2021/12/19 08:57:31;;;;;;;1.23;0.50;;;5.50;99.90;;;;;;5026579;28;20040;-75
2021/12/19 08:59:57;;;;;;;0.70;0.47;;;5.50;99.90;;;;;;5013027;28;20120;-75
2021/12/19 09:02:24;;;;;;;1.60;0.40;;;5.50;99.90;;;;;;5020633;28;20060;-74
2021/12/19 09:04:49;;;;;;;0.95;0.30;;;5.50;99.90;;;;;;5016914;28;20029;-72
2021/12/19 09:07:17;;;;;;;0.50;0.40;;;5.50;99.90;;;;;;5007810;28;20030;-72
2021/12/19 09:09:44;;;;;;;0.93;0.60;;;5.50;99.90;;;;;;5010251;28;20159;-72
2021/12/19 09:12:10;;;;;;;1.67;0.60;;;5.50;99.90;;;;;;5007353;28;20034;-72
2021/12/19 09:14:35;;;;;;;0.40;0.40;;;5.60;99.90;;;;;;5016152;28;20355;-72
2021/12/19 09:17:02;;;;;;;0.85;0.30;;;5.50;99.90;;;;;;5007455;28;20057;-72
2021/12/19 09:19:28;;;;;;;0.32;0.20;;;5.50;99.90;;;;;;5011368;28;20164;-72
2021/12/19 09:21:54;;;;;;;0.43;0.40;;;5.60;99.90;;;;;;5032682;28;20036;-72
2021/12/19 09:24:20;;;;;;;0.77;0.40;;;5.60;99.90;;;;;;5033536;28;20026;-72
2021/12/19 09:26:46;;;;;;;0.68;0.50;;;5.60;99.90;;;;;;5006796;28;20040;-72
2021/12/19 09:29:12;;;;;;;0.30;0.30;;;5.60;99.90;;;;;;5006391;28;20444;-72
2021/12/19 09:31:37;;;;;;;0.40;0.40;;;5.60;99.90;;;;;;5012380;28;20050;-72
2021/12/19 09:34:03;;;;;;;0.43;0.43;;;5.70;99.90;;;;;;5027129;28;20513;-72
2021/12/19 09:36:29;;;;;;;0.15;0.15;;;5.90;99.90;;;;;;5045884;28;20737;-72
2021/12/19 09:38:55;;;;;;;0.35;0.30;;;;;;;;;;5027496;28;20335;-72
2021/12/19 09:41:31;;;;;;;0.30;0.30;;;;;;;;;;5024382;28;20469;-72
2021/12/19 09:43:58;;;;;;;0.30;0.30;;;;;;;;;;5020014;28;20124;-72
2021/12/19 09:46:28;;;;;;;0.30;0.30;;;;;;;;;;5013507;28;20091;-72
2021/12/19 09:48:54;;;;;;;0.63;0.32;;;;;;;;;;5016496;28;20034;-72
2021/12/19 09:51:20;;;;;;;3.70;0.30;;;;;;;;;;5012507;28;20038;-72
2021/12/19 09:53:46;;;;;;;0.30;0.30;;;;;;;;;;5021404;28;20103;-71
2021/12/19 09:56:13;;;;;;;0.43;0.20;;;;;;;;;;5035262;28;20488;-71
2021/12/19 09:58:40;;;;;;;0.30;0.30;;;;;;;;;;5013021;28;20038;-70
2021/12/19 10:01:07;;;;;;;0.40;0.30;;;;;;;;;;5005995;28;20033;-71
2021/12/19 10:03:35;;;;;;;0.57;0.30;;;;;;;;;;5022469;28;20033;-72
2021/12/19 10:06:14;;;;;;;0.20;0.20;;;;;;;;;;5012972;28;20108;-71
2021/12/19 10:08:40;;;;;;;0.40;0.30;;;;;;;;;;5007785;28;20092;-72
2021/12/19 10:11:14;;;;;;;0.50;0.30;;;;;;;;;;5014849;28;20033;-72
2021/12/19 10:13:40;;;;;;;0.52;0.30;;;;;;;;;;5014397;28;20063;-71
2021/12/19 10:16:26;;;;;;;0.30;0.30;;;;;;;;;;5021122;28;20589;-72
2021/12/19 10:18:53;;;;;;;1.75;0.40;;;;;;;;;;5027039;28;20111;-72
2021/12/19 10:21:20;;;;;;;0.38;0.35;;;;;;;;;;5011659;28;20036;-72
2021/12/19 10:23:46;;;;;;;0.43;0.30;;;;;;;;;;5012454;28;20033;-72
2021/12/19 10:26:13;;;;;;;1.85;0.90;;;;;;;;;;5026075;28;20029;-72
2021/12/19 10:28:50;;;;;;;0.75;0.57;;;6.60;99.90;;;;;;5020247;28;20287;-72
2021/12/19 10:31:16;;;;;;;0.60;0.50;;;6.40;99.90;;;;;;5013628;28;20033;-72
2021/12/19 10:33:42;;;;;;;0.30;0.30;;;6.40;99.90;;;;;;5024808;28;20029;-72
2021/12/19 10:36:09;;;;;;;0.85;0.47;;;6.30;99.90;;;;;;5027005;28;20091;-72
2021/12/19 10:38:41;;;;;;;0.70;0.50;;;6.30;99.90;;;;;;5030061;28;20396;-71
2021/12/19 10:41:20;;;;;;;0.75;0.60;;;6.30;99.90;;;;;;5022207;28;20038;-71
2021/12/19 10:43:59;;;;;;;1.55;0.60;;;6.40;99.90;;;;;;5024699;28;20108;-72
2021/12/19 10:46:36;;;;;;;1.17;0.70;;;6.30;99.90;;;;;;5030679;28;20025;-72
2021/12/19 10:49:03;;;;;;;3.00;1.20;;;6.30;99.90;;;;;;5028172;28;20405;-72
2021/12/19 10:51:32;;;;;;;0.93;0.75;;;6.30;99.90;;;;;;5027982;28;20553;-72
2021/12/19 10:54:03;;;;;;;1.88;0.90;;;6.30;99.90;;;;;;5026686;28;20064;-72
2021/12/19 10:56:34;;;;;;;1.63;1.10;;;6.40;99.90;;;;;;5020648;28;20026;-72
2021/12/19 10:59:04;;;;;;;1.08;0.82;;;6.40;99.90;;;;;;5029854;28;20107;-72
2021/12/19 11:01:41;;;;;;;1.48;0.70;;;6.40;99.90;;;;;;5022424;28;20083;-72
2021/12/19 11:04:11;;;;;;;0.90;0.70;;;6.50;99.90;;;;;;5027434;28;20033;-71
2021/12/19 11:06:54;;;;;;;1.00;0.80;;;6.50;99.90;;;;;;5040308;28;20088;-70
2021/12/19 11:09:21;;;;;;;;;;;6.50;99.90;;;;;;5031272;28;20038;-72
2021/12/19 11:12:01;;;;;;;1.00;0.60;;;6.50;99.90;;;;;;4326590;28;10000705;-72
2021/12/19 11:14:33;;;;;;;0.95;0.70;;;6.50;99.90;;;;;;5017499;28;20041;-72
2021/12/19 11:17:00;;;;;;;1.20;0.65;;;6.60;99.90;;;;;;5027193;28;20099;-72
2021/12/19 11:19:26;;;;;;;1.42;1.02;;;6.50;99.90;;;;;;5020278;28;20091;-72
2021/12/19 11:21:52;;;;;;;1.55;1.02;;;6.50;99.90;;;;;;5032416;28;20079;-72
2021/12/19 11:24:20;;;;;;;2.05;0.95;;;6.50;99.90;;;;;;5020014;28;20033;-72
2021/12/19 11:26:49;;;;;;;0.88;0.55;;;6.50;99.90;;;;;;5041959;28;20160;-72
2021/12/19 11:29:16;;;;;;;0.50;0.47;;;6.50;99.90;;;;;;5018910;28;20100;-71
2021/12/19 11:31:47;;;;;;;0.90;0.70;;;6.50;99.90;;;;;;5018130;28;20099;-72
2021/12/19 11:34:17;;;;;;;1.10;1.00;;;6.50;99.90;;;;;;5032199;28;20035;-72
2021/12/19 11:36:48;;;;;;;1.67;0.93;;;6.50;99.90;;;;;;5027415;28;20034;-72
2021/12/19 11:39:15;;;;;;;0.75;0.55;;;6.50;99.90;;;;;;5023125;28;20032;-72
2021/12/19 11:42:10;;;;;;;1.02;0.90;;;6.50;99.90;;;;;;5020732;28;20053;-72
2021/12/19 11:44:47;;;;;;;2.10;1.67;;;6.60;99.90;;;;;;5027261;28;20025;-71
2021/12/19 11:47:16;;;;;;;1.20;0.90;;;6.60;99.90;;;;;;5019547;28;20025;-72
2021/12/19 11:49:42;;;;;;;0.45;0.45;;;6.50;99.90;;;;;;5022644;28;20029;-72
2021/12/19 11:52:26;;;;;;;0.93;0.68;;;6.40;99.90;;;;;;5020021;28;20030;-72
2021/12/19 11:55:13;;;;;;;0.65;0.60;;;6.40;99.90;;;;;;5015865;28;20030;-72
2021/12/19 11:57:40;;;;;;;0.73;0.70;;;6.40;99.90;;;;;;5028949;28;20029;-72
2021/12/19 12:00:52;;;;;;;0.60;0.60;;;6.40;99.90;;;;;;5018391;28;20055;-72
2021/12/19 12:03:20;;;;;;;0.57;0.57;;;6.40;99.90;;;;;;5039060;28;20026;-72
2021/12/19 12:05:58;;;;;;;0.63;0.60;;;6.40;99.90;;;;;;5039965;28;20160;-70
2021/12/19 12:08:26;;;;;;;2.00;1.45;;;6.40;99.90;;;;;;5020260;28;20041;-72
2021/12/19 12:11:12;;;;;;;1.20;0.98;;;6.40;99.90;;;;;;5012448;28;20028;-73
2021/12/19 12:13:42;;;;;;;1.40;1.10;;;6.40;99.90;;;;;;5014887;28;20033;-72
2021/12/19 12:16:33;;;;;;;1.15;1.05;;;6.40;99.90;;;;;;5017231;28;20412;-73
2021/12/19 12:19:02;;;;;;;0.80;0.60;;;6.40;99.90;;;;;;5022212;28;20103;-73
2021/12/19 12:24:17;;;;;;;1.00;0.75;;;6.40;99.90;;;;;;5031943;28;20100;-73
2021/12/19 12:26:57;;;;;;;1.10;0.90;;;6.30;99.90;;;;;;5016891;28;20029;-73
2021/12/19 12:29:23;;;;;;;2.70;1.73;;;6.30;99.90;;;;;;5026507;28;20509;-73
2021/12/19 12:31:51;;;;;;;4.45;2.25;;;6.30;99.90;;;;;;5026596;28;20136;-73
2021/12/19 12:34:18;;;;;;;2.17;1.58;;;6.30;99.90;;;;;;5021007;28;20037;-73
2021/12/19 12:36:44;;;;;;;2.58;1.23;;;6.30;99.90;;;;;;5022428;28;20025;-73
2021/12/19 12:39:22;;;;;;;0.93;0.90;;;6.30;99.90;;;;;;5027281;28;20032;-73
2021/12/19 12:41:59;;;;;;;2.08;1.10;;;6.30;99.90;;;;;;5042704;28;20061;-73
2021/12/19 12:44:26;;;;;;;1.00;0.90;;;6.30;99.90;;;;;;5027776;28;20030;-73
2021/12/19 12:46:51;;;;;;;1.70;0.73;;;6.30;99.90;;;;;;5024987;28;20037;-72
2021/12/19 12:49:18;;;;;;;0.70;0.70;;;6.30;99.90;;;;;;5024188;28;20029;-72
2021/12/19 12:51:45;;;;;;;1.45;0.73;;;6.30;99.90;;;;;;5027610;28;20048;-76
2021/12/19 12:54:26;;;;;;;1.23;0.60;;;6.30;99.90;;;;;;5023490;28;20033;-75
2021/12/19 12:56:54;;;;;;;0.73;0.73;;;6.30;99.90;;;;;;5018275;28;20096;-74
2021/12/19 12:59:22;;;;;;;0.90;0.70;;;6.40;99.90;;;;;;5025523;28;20108;-74
2021/12/19 13:02:07;;;;;;;0.80;0.75;;;6.40;99.90;;;;;;5026717;28;20384;-74
2021/12/19 13:04:33;;;;;;;0.88;0.80;;;6.40;99.90;;;;;;5026436;28;20033;-76
2021/12/19 13:07:10;;;;;;;2.08;1.00;;;6.30;99.90;;;;;;5024634;28;20370;-73
2021/12/19 13:09:40;;;;;;;1.70;1.10;;;6.30;99.90;;;;;;5018576;28;20033;-74
2021/12/19 13:12:16;;;;;;;1.85;1.35;;;6.30;99.90;;;;;;5016644;28;20052;-74
2021/12/19 13:14:45;;;;;;;2.35;0.80;;;6.40;99.90;;;;;;5029102;28;20037;-72
2021/12/19 13:17:19;;;;;;;2.83;1.48;;;6.30;99.90;;;;;;5033706;28;20029;-74
2021/12/19 13:19:59;;;;;;;3.72;1.80;;;6.30;99.90;;;;;;5018293;28;20037;-73
2021/12/19 13:22:26;;;;;;;1.75;1.15;;;6.30;99.90;;;;;;5020357;28;20100;-73
2021/12/19 13:24:55;;;;;;;2.65;0.90;;;6.30;99.90;;;;;;5031002;28;20034;-74
2021/12/19 13:27:24;;;;;;;0.80;0.70;;;6.30;99.90;;;;;;5011140;28;20040;-74
2021/12/19 13:30:16;;;;;;;1.20;0.80;;;6.30;99.90;;;;;;5025438;28;20168;-75
2021/12/19 13:32:54;;;;;;;0.83;0.70;;;6.30;99.90;;;;;;5029371;28;20044;-74
2021/12/19 13:35:25;;;;;;;1.13;0.80;;;6.30;99.90;;;;;;5028231;28;20555;-74
2021/12/19 13:37:55;;;;;;;1.00;0.88;;;6.30;99.90;;;;;;5039250;28;20025;-74
2021/12/19 13:40:24;;;;;;;2.55;0.90;;;6.20;99.90;;;;;;5029497;28;20026;-76
2021/12/19 13:42:52;;;;;;;1.98;1.20;;;;;;;;;;5021504;28;20080;-78
2021/12/19 13:45:22;;;;;;;1.48;1.00;;;6.20;99.90;;;;;;5026357;28;20033;-75
2021/12/19 13:47:48;;;;;;;1.25;1.00;;;6.20;99.90;;;;;;5021796;28;20033;-77
2021/12/19 13:50:14;;;;;;;1.83;1.20;;;6.20;99.90;;;;;;5010239;28;20038;-76
2021/12/19 13:52:41;;;;;;;1.27;1.05;;;;;;;;;;5014567;28;22062;-75
2021/12/19 13:55:09;;;;;;;2.90;1.20;;;6.20;99.90;;;;;;5018755;28;20033;-76
2021/12/19 13:57:36;;;;;;;2.65;1.80;;;6.10;99.90;;;;;;5012027;28;20099;-78
2021/12/19 14:00:06;;;;;;;1.63;1.20;;;6.20;99.90;;;;;;5021747;28;20148;-73
2021/12/19 14:02:39;;;;;;;1.40;1.20;;;6.10;99.90;;;;;;5021639;28;20497;-73
2021/12/19 14:05:30;;;;;;;1.85;1.20;;;6.10;99.90;;;;;;5026324;28;20025;-75
2021/12/19 14:07:55;;;;;;;2.42;1.83;;;6.10;99.90;;;;;;5019160;28;20034;-75
2021/12/19 14:10:22;;;;;;;2.83;1.60;;;6.20;99.90;;;;;;5026367;28;20029;-76
2021/12/19 14:12:57;;;;;;;4.95;2.30;;;6.10;99.90;;;;;;5021265;28;20069;-76
2021/12/19 14:15:23;;;;;;;2.25;1.30;;;6.20;99.90;;;;;;5035626;28;20113;-73
2021/12/19 14:17:50;;;;;;;2.25;1.00;;;6.20;99.90;;;;;;5033604;28;20485;-75
2021/12/19 14:20:15;;;;;;;1.92;1.20;;;6.10;99.90;;;;;;5035664;28;20033;-74